Time;durP1;ratioP1;P1;durP2;ratioP2;P2;SDS_P1;SDS_P2;PMS_P1;PMS_P2;Temp;Humidity;BMP_temperature;BMP_pressure;BME280_temperature;BME280_humidity;BME280_pressure;Samples;Min_cycle;Max_cycle;Signal;HPM_P1;HPM_P2
2023/06/09 00:01:35;;;;;;;20.65;8.52;;;11.80;99.90;;;;;;5002179;28;20045;-77
2023/06/09 00:04:06;;;;;;;17.60;7.78;;;11.80;99.90;;;;;;5015809;28;20041;-76
2023/06/09 00:06:33;;;;;;;22.98;8.43;;;11.80;99.90;;;;;;5019705;28;20444;-76
2023/06/09 00:08:59;;;;;;;21.40;8.15;;;11.80;99.90;;;;;;5017956;28;20481;-76
2023/06/09 00:11:25;;;;;;;24.88;9.57;;;11.80;99.90;;;;;;5012063;28;20053;-76
2023/06/09 00:13:51;;;;;;;19.80;8.63;;;11.80;99.90;;;;;;5016633;28;20045;-77
2023/06/09 00:16:17;;;;;;;20.58;8.40;;;11.80;99.90;;;;;;5009009;28;20061;-76
2023/06/09 00:18:45;;;;;;;21.23;9.25;;;11.80;99.90;;;;;;5021852;28;20434;-77
2023/06/09 00:21:17;;;;;;;23.60;8.77;;;11.80;99.90;;;;;;5017527;28;20073;-76
2023/06/09 00:23:46;;;;;;;25.00;9.57;;;11.80;99.90;;;;;;5017257;28;20454;-76
2023/06/09 00:26:13;;;;;;;19.70;8.52;;;11.80;99.90;;;;;;5019951;28;20072;-76
2023/06/09 00:28:39;;;;;;;22.05;9.20;;;11.70;99.90;;;;;;5015606;28;20091;-75
2023/06/09 00:31:06;;;;;;;24.85;9.63;;;11.80;99.90;;;;;;5023819;28;20052;-75
2023/06/09 00:33:31;;;;;;;20.00;8.95;;;11.80;99.90;;;;;;5016825;28;20121;-76
2023/06/09 00:35:57;;;;;;;25.85;10.23;;;11.80;99.90;;;;;;5019414;28;20137;-76
2023/06/09 00:38:23;;;;;;;18.88;8.95;;;11.70;99.90;;;;;;5023105;28;20044;-76
2023/06/09 00:40:51;;;;;;;24.63;8.70;;;11.80;99.90;;;;;;5019613;28;20053;-76
2023/06/09 00:43:17;;;;;;;24.35;8.60;;;11.70;99.90;;;;;;5017092;28;20136;-76
2023/06/09 00:45:43;;;;;;;24.40;8.30;;;11.80;99.90;;;;;;5020602;28;20068;-76
2023/06/09 00:48:09;;;;;;;23.77;9.30;;;11.80;99.90;;;;;;5019149;28;20041;-75
2023/06/09 00:50:36;;;;;;;27.15;9.68;;;11.70;99.90;;;;;;5020045;28;20060;-76
2023/06/09 00:53:02;;;;;;;26.30;8.98;;;11.80;99.90;;;;;;5017391;28;20034;-76
2023/06/09 00:55:30;;;;;;;22.08;8.85;;;11.70;99.90;;;;;;5022201;28;20121;-76
2023/06/09 00:57:56;;;;;;;25.17;9.90;;;11.70;99.90;;;;;;5019700;28;20120;-76
2023/06/09 01:00:29;;;;;;;26.48;8.88;;;11.70;99.90;;;;;;5021666;28;20124;-77
2023/06/09 01:03:01;;;;;;;26.67;9.10;;;11.80;99.90;;;;;;5012551;28;20048;-78
2023/06/09 01:05:33;;;;;;;21.00;9.07;;;11.70;99.90;;;;;;5018716;28;20412;-77
2023/06/09 01:08:04;;;;;;;23.52;8.32;;;11.80;99.90;;;;;;5016960;28;21003;-77
2023/06/09 01:10:58;;;;;;;24.63;9.10;;;11.80;99.90;;;;;;5022792;28;20414;-77
2023/06/09 01:13:42;;;;;;;;;;;11.70;99.90;;;;;;5014477;28;20045;-76
2023/06/09 01:16:27;;;;;;;25.85;8.13;;;11.70;99.90;;;;;;5016617;28;20379;-76
2023/06/09 01:18:54;;;;;;;26.60;9.25;;;11.70;99.90;;;;;;5017317;28;20041;-76
2023/06/09 01:21:35;;;;;;;24.90;8.60;;;11.70;99.90;;;;;;5014787;28;20497;-76
2023/06/09 01:24:16;;;;;;;25.45;9.15;;;11.70;99.90;;;;;;5021492;28;20037;-76
2023/06/09 01:26:42;;;;;;;23.02;8.70;;;11.70;99.90;;;;;;5017999;28;20045;-75
2023/06/09 01:29:10;;;;;;;21.42;8.38;;;11.70;99.90;;;;;;5022343;28;20056;-77
2023/06/09 01:31:37;;;;;;;20.08;9.73;;;11.80;99.90;;;;;;5016404;28;20447;-76
2023/06/09 01:34:03;;;;;;;23.60;8.82;;;11.80;99.90;;;;;;5017430;28;20517;-75
2023/06/09 01:36:29;;;;;;;32.05;10.65;;;11.80;99.90;;;;;;5020073;28;20532;-78
2023/06/09 01:38:57;;;;;;;28.88;9.30;;;11.80;99.90;;;;;;5017454;28;20060;-77
2023/06/09 01:41:25;;;;;;;22.75;9.90;;;11.80;99.90;;;;;;5015458;28;20045;-77
2023/06/09 01:43:50;;;;;;;25.02;9.10;;;11.80;99.90;;;;;;5020753;28;20046;-76
2023/06/09 01:46:16;;;;;;;23.38;9.02;;;11.90;99.90;;;;;;5020523;28;20399;-77
2023/06/09 01:48:48;;;;;;;24.42;9.23;;;11.80;99.90;;;;;;5020490;28;20401;-76
2023/06/09 01:51:36;;;;;;;23.85;8.75;;;11.90;99.90;;;;;;5013360;28;20053;-76
2023/06/09 01:54:10;;;;;;;23.00;9.45;;;11.90;99.90;;;;;;5018532;28;20053;-76
2023/06/09 01:56:51;;;;;;;20.02;9.25;;;11.90;99.90;;;;;;5033593;28;20045;-76
2023/06/09 01:59:22;;;;;;;19.75;8.73;;;11.80;99.90;;;;;;5015494;28;20199;-76
2023/06/09 02:01:51;;;;;;;31.77;9.57;;;11.90;99.90;;;;;;5021330;28;20049;-76
2023/06/09 02:04:18;;;;;;;22.45;9.25;;;11.90;99.90;;;;;;5018834;28;20049;-77
2023/06/09 02:06:45;;;;;;;20.42;8.38;;;11.90;99.90;;;;;;5019212;28;20037;-77
2023/06/09 02:09:11;;;;;;;21.88;8.25;;;11.90;99.90;;;;;;5017953;28;20042;-76
2023/06/09 02:11:37;;;;;;;23.73;9.40;;;11.80;99.90;;;;;;5013119;28;20045;-75
2023/06/09 02:14:03;;;;;;;25.75;8.20;;;11.80;99.90;;;;;;5034004;28;20636;-77
2023/06/09 02:16:29;;;;;;;30.98;9.00;;;11.80;99.90;;;;;;5020994;28;20227;-76
2023/06/09 02:18:56;;;;;;;24.67;8.07;;;11.80;99.90;;;;;;5016099;28;20080;-77
2023/06/09 02:21:21;;;;;;;23.80;8.65;;;11.80;99.90;;;;;;5000105;28;20130;-77
2023/06/09 02:23:50;;;;;;;23.67;8.25;;;11.80;99.90;;;;;;5024397;28;20088;-76
2023/06/09 02:26:16;;;;;;;23.00;8.60;;;11.80;99.90;;;;;;5025970;28;20048;-75
2023/06/09 02:28:42;;;;;;;21.77;8.60;;;11.80;99.90;;;;;;5022804;28;20606;-77
2023/06/09 02:31:08;;;;;;;18.35;8.50;;;11.70;99.90;;;;;;5020712;28;20041;-74
2023/06/09 02:33:33;;;;;;;20.55;9.20;;;11.70;99.90;;;;;;5012636;28;20136;-76
2023/06/09 02:35:59;;;;;;;23.70;8.52;;;11.70;99.90;;;;;;5021997;28;20117;-77
2023/06/09 02:38:26;;;;;;;20.08;9.05;;;11.70;99.90;;;;;;5020129;28;20481;-76
2023/06/09 02:40:52;;;;;;;25.08;9.63;;;11.70;99.90;;;;;;5004568;28;20053;-76
2023/06/09 02:43:17;;;;;;;26.95;8.85;;;11.70;99.90;;;;;;5024315;28;20046;-76
2023/06/09 02:45:43;;;;;;;25.23;9.70;;;11.70;99.90;;;;;;5022446;28;20184;-77
2023/06/09 02:48:09;;;;;;;21.15;9.23;;;11.70;99.90;;;;;;5020628;28;20057;-76
2023/06/09 02:50:35;;;;;;;25.75;9.35;;;11.70;99.90;;;;;;5001297;28;20127;-76
2023/06/09 02:53:01;;;;;;;25.63;8.93;;;11.70;99.90;;;;;;5004652;28;20448;-75
2023/06/09 02:55:26;;;;;;;29.15;9.02;;;11.70;99.90;;;;;;5022559;28;20132;-76
2023/06/09 02:57:52;;;;;;;29.88;10.30;;;11.70;99.90;;;;;;5023216;28;20064;-77
2023/06/09 03:00:19;;;;;;;19.50;8.93;;;11.70;99.90;;;;;;5019251;28;20264;-76
2023/06/09 03:02:46;;;;;;;20.85;9.32;;;11.70;99.90;;;;;;5018531;28;20038;-76
2023/06/09 03:05:11;;;;;;;22.25;9.50;;;11.70;99.90;;;;;;5016819;28;20493;-76
2023/06/09 03:07:37;;;;;;;23.63;10.48;;;11.70;99.90;;;;;;5004899;28;20081;-76
2023/06/09 03:10:06;;;;;;;23.13;10.95;;;11.70;99.90;;;;;;5023244;28;20081;-77
2023/06/09 03:12:32;;;;;;;27.85;11.80;;;11.70;99.90;;;;;;5024208;28;20041;-77
2023/06/09 03:14:57;;;;;;;27.63;11.48;;;11.70;99.90;;;;;;5018954;28;20076;-77
2023/06/09 03:17:24;;;;;;;29.88;11.65;;;11.70;99.90;;;;;;5004471;28;20133;-77
2023/06/09 03:19:51;;;;;;;32.03;11.45;;;11.70;99.90;;;;;;5022208;28;20103;-77
2023/06/09 03:22:17;;;;;;;27.50;10.93;;;11.70;99.90;;;;;;5018382;28;20065;-77
2023/06/09 03:24:44;;;;;;;23.50;11.13;;;11.70;99.90;;;;;;5021473;28;20834;-76
2023/06/09 03:27:10;;;;;;;22.40;11.10;;;11.70;99.90;;;;;;5025087;28;20045;-77
2023/06/09 03:29:36;;;;;;;31.27;12.38;;;11.80;99.90;;;;;;5021270;28;20406;-77
2023/06/09 03:32:02;;;;;;;24.42;11.07;;;11.80;99.90;;;;;;5019646;28;20103;-76
2023/06/09 03:34:29;;;;;;;24.48;11.50;;;11.80;99.90;;;;;;5020168;28;20076;-77
2023/06/09 03:36:55;;;;;;;29.40;10.60;;;11.80;99.90;;;;;;5019754;28;20148;-77
2023/06/09 03:39:21;;;;;;;23.15;10.27;;;11.80;99.90;;;;;;5022062;28;20570;-77
2023/06/09 03:41:47;;;;;;;27.15;12.18;;;11.80;99.90;;;;;;5021962;28;20575;-75
2023/06/09 03:44:12;;;;;;;27.40;10.98;;;11.80;99.90;;;;;;5020610;28;20037;-76
2023/06/09 03:46:38;;;;;;;24.60;10.65;;;11.90;99.90;;;;;;5023246;28;20374;-76
2023/06/09 03:49:04;;;;;;;28.55;10.00;;;11.90;99.90;;;;;;5022060;28;20118;-76
2023/06/09 03:51:29;;;;;;;21.40;9.98;;;11.90;99.90;;;;;;5020708;28;20436;-77
2023/06/09 03:53:55;;;;;;;20.77;10.18;;;12.00;99.90;;;;;;5020322;28;20037;-77
2023/06/09 03:56:21;;;;;;;23.65;10.55;;;11.90;99.90;;;;;;5025037;28;20046;-77
2023/06/09 03:58:46;;;;;;;22.63;9.75;;;12.00;99.90;;;;;;5003300;28;20323;-77
2023/06/09 04:01:12;;;;;;;27.38;10.43;;;12.00;99.90;;;;;;5019316;28;20037;-76
2023/06/09 04:03:38;;;;;;;19.45;9.43;;;12.00;99.90;;;;;;5003171;28;20136;-77
2023/06/09 04:06:04;;;;;;;27.40;10.50;;;12.10;99.90;;;;;;5019687;28;20116;-77
2023/06/09 04:08:30;;;;;;;22.40;10.07;;;12.20;99.90;;;;;;5017558;28;20053;-77
2023/06/09 04:10:56;;;;;;;20.55;9.88;;;12.30;99.90;;;;;;5018421;28;20064;-77
2023/06/09 04:13:24;;;;;;;31.02;10.38;;;12.30;99.90;;;;;;5020826;28;20339;-76
2023/06/09 04:15:50;;;;;;;21.73;9.95;;;12.50;99.90;;;;;;5017528;28;20049;-77
2023/06/09 04:18:16;;;;;;;23.58;9.73;;;12.60;99.90;;;;;;5000000;28;21459;-77
2023/06/09 04:20:42;;;;;;;22.30;10.27;;;12.90;99.90;;;;;;5015720;28;20099;-78
2023/06/09 04:23:09;;;;;;;29.70;9.93;;;13.10;99.90;;;;;;5018219;28;20385;-77
2023/06/09 04:25:35;;;;;;;22.13;9.48;;;13.20;99.90;;;;;;5018899;28;20029;-78
2023/06/09 04:28:03;;;;;;;22.48;9.40;;;13.40;99.90;;;;;;5002877;28;20045;-75
2023/06/09 04:30:30;;;;;;;25.38;9.45;;;13.30;99.90;;;;;;5017622;28;20229;-74
2023/06/09 04:33:03;;;;;;;30.60;11.27;;;13.10;99.90;;;;;;5019635;28;20034;-75
2023/06/09 04:35:30;;;;;;;23.38;9.48;;;13.00;99.90;;;;;;5018314;28;20057;-75
2023/06/09 04:38:00;;;;;;;24.42;9.65;;;12.80;99.90;;;;;;5016682;28;20068;-75
2023/06/09 04:40:27;;;;;;;20.52;9.63;;;12.80;99.90;;;;;;5010685;28;20053;-75
2023/06/09 04:42:56;;;;;;;28.23;9.35;;;12.70;99.90;;;;;;5013996;28;20164;-74
2023/06/09 04:45:27;;;;;;;19.20;8.43;;;12.70;99.90;;;;;;5009299;28;20070;-76
2023/06/09 04:47:59;;;;;;;23.90;8.30;;;12.60;99.90;;;;;;5018939;28;20061;-77
2023/06/09 04:50:28;;;;;;;24.38;8.73;;;12.70;99.90;;;;;;5014967;28;20042;-78
2023/06/09 04:52:55;;;;;;;20.95;9.00;;;12.70;99.90;;;;;;5016619;28;20114;-77
2023/06/09 04:55:25;;;;;;;22.73;8.88;;;12.70;99.90;;;;;;5006804;28;20038;-77
2023/06/09 04:57:53;;;;;;;24.08;8.20;;;12.80;99.90;;;;;;5017155;28;20125;-77
2023/06/09 05:00:23;;;;;;;18.33;8.13;;;12.90;99.90;;;;;;5016041;28;20065;-77
2023/06/09 05:02:53;;;;;;;20.80;8.88;;;13.00;99.90;;;;;;5005007;28;20056;-78
2023/06/09 05:05:21;;;;;;;15.60;8.93;;;13.00;99.90;;;;;;5014429;28;20072;-78
2023/06/09 05:07:47;;;;;;;28.23;9.05;;;13.10;99.90;;;;;;5015780;28;20033;-77
2023/06/09 05:10:12;;;;;;;23.63;9.68;;;13.20;99.90;;;;;;5017061;28;20057;-77
2023/06/09 05:12:39;;;;;;;28.25;10.30;;;13.30;99.90;;;;;;5017911;28;20068;-75
2023/06/09 05:15:06;;;;;;;26.83;9.88;;;13.30;99.90;;;;;;5016906;28;20140;-76
2023/06/09 05:17:41;;;;;;;23.52;10.32;;;13.40;99.90;;;;;;5011741;28;20102;-76
2023/06/09 05:20:10;;;;;;;20.83;9.43;;;13.50;99.90;;;;;;5018384;28;20083;-76
2023/06/09 05:22:37;;;;;;;21.42;10.07;;;13.60;99.90;;;;;;5016925;28;20111;-76
2023/06/09 05:25:04;;;;;;;23.05;10.18;;;13.70;99.90;;;;;;5014005;28;20045;-76
2023/06/09 05:27:30;;;;;;;26.63;10.15;;;13.80;99.90;;;;;;5018029;28;20112;-75
2023/06/09 05:29:56;;;;;;;21.48;9.55;;;13.90;99.90;;;;;;5014215;28;20050;-75
2023/06/09 05:32:22;;;;;;;25.67;9.88;;;14.00;99.90;;;;;;5009058;28;20045;-75
2023/06/09 05:34:48;;;;;;;18.98;8.02;;;14.10;99.90;;;;;;5010594;28;20033;-75
2023/06/09 05:37:16;;;;;;;21.40;9.20;;;14.10;99.90;;;;;;4996150;28;20404;-75
2023/06/09 05:39:42;;;;;;;22.83;8.93;;;14.20;99.90;;;;;;5013334;28;20156;-76
2023/06/09 05:42:09;;;;;;;18.33;8.88;;;14.30;99.90;;;;;;5015424;28;20141;-75
2023/06/09 05:44:35;;;;;;;19.58;8.88;;;14.40;99.90;;;;;;5011249;28;20400;-76
2023/06/09 05:47:00;;;;;;;18.60;7.78;;;14.40;99.90;;;;;;5016970;28;20039;-76
2023/06/09 05:49:26;;;;;;;20.35;7.82;;;14.50;99.90;;;;;;4999391;28;20049;-75
2023/06/09 05:51:52;;;;;;;21.23;8.73;;;14.60;99.90;;;;;;5016580;28;20132;-77
2023/06/09 05:54:18;;;;;;;20.63;7.97;;;14.70;99.90;;;;;;5015513;28;20060;-76
2023/06/09 05:56:44;;;;;;;17.13;7.78;;;14.80;99.90;;;;;;5004942;28;20128;-75
2023/06/09 05:59:12;;;;;;;18.73;7.93;;;14.90;99.90;;;;;;5012217;28;20522;-76
2023/06/09 06:01:37;;;;;;;21.10;8.18;;;15.00;99.90;;;;;;5014020;28;20144;-76
2023/06/09 06:04:03;;;;;;;29.60;8.43;;;15.00;99.90;;;;;;5016935;28;20171;-75
2023/06/09 06:06:30;;;;;;;15.88;7.47;;;15.00;99.90;;;;;;5018686;28;20045;-76
2023/06/09 06:08:56;;;;;;;19.35;8.63;;;15.10;99.90;;;;;;5016897;28;20044;-76
2023/06/09 06:11:22;;;;;;;21.75;7.03;;;15.20;99.90;;;;;;5007908;28;20045;-76
2023/06/09 06:13:47;;;;;;;21.42;7.90;;;15.40;99.90;;;;;;5017349;28;20045;-71
2023/06/09 06:16:13;;;;;;;25.27;7.13;;;15.50;99.90;;;;;;5029220;28;20076;-74
2023/06/09 06:18:38;;;;;;;16.83;7.50;;;15.60;99.90;;;;;;5021365;28;20049;-75
2023/06/09 06:21:05;;;;;;;16.58;7.13;;;15.70;99.90;;;;;;5014372;28;20405;-75
2023/06/09 06:23:31;;;;;;;24.02;7.13;;;15.80;99.90;;;;;;5020741;28;20037;-75
2023/06/09 06:25:57;;;;;;;15.18;6.85;;;15.90;99.90;;;;;;5009408;28;20542;-75
2023/06/09 06:28:23;;;;;;;18.77;7.53;;;16.00;99.90;;;;;;5013876;28;20099;-77
2023/06/09 06:30:52;;;;;;;23.98;8.18;;;16.10;99.90;;;;;;5014522;28;20041;-79
2023/06/09 06:33:17;;;;;;;24.67;8.15;;;16.20;99.90;;;;;;5015366;28;20041;-79
2023/06/09 06:35:43;;;;;;;23.98;8.85;;;16.30;99.90;;;;;;5018565;28;20052;-79
2023/06/09 06:38:08;;;;;;;20.17;7.72;;;16.50;99.90;;;;;;5011718;28;20461;-80
2023/06/09 06:40:34;;;;;;;18.50;6.60;;;16.50;99.90;;;;;;5012689;28;20048;-80
2023/06/09 06:43:00;;;;;;;16.13;7.05;;;16.60;99.90;;;;;;5014473;28;20527;-80
2023/06/09 06:45:28;;;;;;;19.42;6.82;;;16.70;99.90;;;;;;5016815;28;20508;-80
2023/06/09 06:47:56;;;;;;;14.30;6.88;;;16.80;99.90;;;;;;5015923;28;20236;-80
2023/06/09 06:50:23;;;;;;;18.60;6.95;;;16.80;99.90;;;;;;5018817;28;20045;-79
2023/06/09 06:52:52;;;;;;;19.10;7.00;;;16.90;99.90;;;;;;5017212;28;20038;-79
2023/06/09 06:55:17;;;;;;;19.52;6.68;;;17.00;99.90;;;;;;5019624;28;20041;-78
2023/06/09 06:57:43;;;;;;;18.90;6.85;;;17.10;99.90;;;;;;5014780;28;20185;-79
2023/06/09 07:00:14;;;;;;;25.13;7.35;;;17.20;99.90;;;;;;5016101;28;20140;-79
2023/06/09 07:02:41;;;;;;;15.57;7.03;;;17.30;99.90;;;;;;5012951;28;20077;-78
2023/06/09 07:05:08;;;;;;;19.05;6.93;;;17.40;99.90;;;;;;5018661;28;20504;-78
2023/06/09 07:07:34;;;;;;;23.05;7.18;;;17.50;99.90;;;;;;5013277;28;20798;-78
2023/06/09 07:10:00;;;;;;;17.95;7.28;;;17.60;99.90;;;;;;5022550;28;20041;-82
2023/06/09 07:12:25;;;;;;;28.90;7.90;;;17.70;99.90;;;;;;5021038;28;20053;-82
2023/06/09 07:14:51;;;;;;;17.45;7.47;;;17.90;99.90;;;;;;5020360;28;20076;-83
2023/06/09 07:17:16;;;;;;;17.73;7.68;;;18.00;99.90;;;;;;5018092;28;20046;-80
2023/06/09 07:19:42;;;;;;;19.40;6.75;;;18.00;99.90;;;;;;5019728;28;20041;-80
2023/06/09 07:22:09;;;;;;;16.30;6.55;;;18.10;99.90;;;;;;5018138;28;20416;-86
2023/06/09 07:24:34;;;;;;;19.88;7.57;;;18.20;99.90;;;;;;5021486;28;21674;-79
2023/06/09 07:27:00;;;;;;;14.38;6.70;;;18.30;99.90;;;;;;4986473;28;21649;-81
2023/06/09 07:29:27;;;;;;;15.07;6.45;;;18.40;99.90;;;;;;5017871;28;20064;-82
2023/06/09 07:31:53;;;;;;;16.33;6.40;;;18.40;99.90;;;;;;5027754;28;20041;-82
2023/06/09 07:34:18;;;;;;;21.30;7.28;;;18.50;99.90;;;;;;5022714;28;20083;-84
2023/06/09 07:36:50;;;;;;;18.63;6.72;;;18.70;99.90;;;;;;5021358;28;20037;-86
2023/06/09 07:39:17;;;;;;;20.65;6.93;;;18.80;99.90;;;;;;5022169;28;20400;-85
2023/06/09 07:41:43;;;;;;;16.48;6.18;;;19.00;99.90;;;;;;5022432;28;20045;-85
2023/06/09 07:44:09;;;;;;;18.42;7.07;;;19.10;99.90;;;;;;5024539;28;20044;-85
2023/06/09 07:46:35;;;;;;;16.85;6.50;;;19.20;99.90;;;;;;5025695;28;20268;-86
2023/06/09 07:49:01;;;;;;;21.75;7.22;;;19.20;99.90;;;;;;5021766;28;20346;-87
2023/06/09 07:51:28;;;;;;;18.05;7.03;;;19.40;99.90;;;;;;5019147;28;20100;-91
2023/06/09 07:53:54;;;;;;;15.02;5.72;;;19.50;99.90;;;;;;5019108;28;20497;-86
2023/06/09 07:56:20;;;;;;;19.08;5.93;;;19.70;99.90;;;;;;5022126;28;20041;-86
2023/06/09 07:58:46;;;;;;;13.40;6.35;;;19.70;99.90;;;;;;5027162;28;20083;-89
2023/06/09 08:01:12;;;;;;;18.13;7.32;;;19.80;99.90;;;;;;5007001;28;20061;-87
2023/06/09 08:03:38;;;;;;;17.77;6.38;;;19.70;99.90;;;;;;5027098;28;20448;-89
2023/06/09 08:06:04;;;;;;;14.43;6.22;;;19.70;99.90;;;;;;5025854;28;20248;-88
2023/06/09 08:08:31;;;;;;;15.35;6.13;;;19.80;99.90;;;;;;5025090;28;20041;-87
2023/06/09 08:10:58;;;;;;;15.90;6.20;;;19.80;99.90;;;;;;5022038;28;20073;-87
2023/06/09 08:13:24;;;;;;;18.15;6.53;;;19.90;99.90;;;;;;5027226;28;20160;-90
2023/06/09 08:15:53;;;;;;;18.05;6.35;;;20.00;99.90;;;;;;5023827;28;20042;-87
2023/06/09 08:18:18;;;;;;;20.73;6.60;;;20.00;99.90;;;;;;5021506;28;20049;-88
2023/06/09 08:20:44;;;;;;;18.13;6.20;;;20.20;99.90;;;;;;5022757;28;20135;-85
2023/06/09 08:23:10;;;;;;;14.50;5.93;;;20.20;99.90;;;;;;5013868;28;20052;-89
2023/06/09 08:25:36;;;;;;;13.50;5.75;;;20.30;99.90;;;;;;5027317;28;20524;-89
2023/06/09 08:28:02;;;;;;;14.27;5.65;;;20.50;99.90;;;;;;5027005;28;20179;-87
2023/06/09 08:30:28;;;;;;;17.63;6.15;;;20.70;99.90;;;;;;5030402;28;20061;-87
2023/06/09 08:32:53;;;;;;;15.00;5.00;;;21.00;99.90;;;;;;5027509;28;20037;-89
2023/06/09 08:35:22;;;;;;;15.52;5.50;;;21.10;99.90;;;;;;5028776;28;20408;-90
2023/06/09 08:37:48;;;;;;;15.55;5.78;;;21.10;99.90;;;;;;5023768;28;20033;-88
2023/06/09 08:40:14;;;;;;;19.50;6.90;;;21.00;99.90;;;;;;5026439;28;20044;-89
2023/06/09 08:42:40;;;;;;;15.90;5.47;;;21.00;99.90;;;;;;5025472;28;20048;-92
2023/06/09 08:45:07;;;;;;;22.13;6.50;;;21.20;99.90;;;;;;5027706;28;20052;-89
2023/06/09 08:47:33;;;;;;;15.93;6.97;;;21.30;99.90;;;;;;5027045;28;20044;-91
2023/06/09 08:50:02;;;;;;;14.38;5.80;;;21.30;99.90;;;;;;5012750;28;20061;-91
2023/06/09 08:52:29;;;;;;;11.75;5.55;;;21.50;99.90;;;;;;4999069;28;20520;-90
2023/06/09 08:54:56;;;;;;;18.90;5.50;;;21.50;99.90;;;;;;5007006;28;20040;-91
2023/06/09 08:57:22;;;;;;;15.48;5.90;;;21.70;99.90;;;;;;5019121;28;20046;-88
2023/06/09 08:59:49;;;;;;;13.18;5.35;;;21.80;99.90;;;;;;5012236;28;20053;-89
2023/06/09 09:02:14;;;;;;;16.58;5.82;;;21.90;99.90;;;;;;4994476;28;20096;-89
2023/06/09 09:04:40;;;;;;;16.52;5.88;;;22.00;99.90;;;;;;5019158;28;20058;-90
2023/06/09 09:07:08;;;;;;;16.88;6.25;;;22.10;99.90;;;;;;5020931;28;20060;-86
2023/06/09 09:09:34;;;;;;;16.15;6.10;;;22.10;99.90;;;;;;5025173;28;20056;-87
2023/06/09 09:12:01;;;;;;;18.52;6.03;;;22.20;99.90;;;;;;5012268;28;20053;-85
2023/06/09 09:14:26;;;;;;;13.60;6.03;;;22.10;99.90;;;;;;5021915;28;20041;-86
2023/06/09 09:16:52;;;;;;;14.68;5.75;;;22.20;99.90;;;;;;5019475;28;20068;-88
2023/06/09 09:19:28;;;;;;;12.65;5.50;;;22.30;99.90;;;;;;5023871;28;20064;-85
2023/06/09 09:22:02;;;;;;;13.43;5.93;;;22.40;99.90;;;;;;5018025;28;20053;-79
2023/06/09 09:24:32;;;;;;;20.48;5.97;;;22.40;99.90;;;;;;5013912;28;20386;-79
2023/06/09 09:26:58;;;;;;;13.52;6.22;;;22.60;99.90;;;;;;5021797;28;20045;-79
2023/06/09 09:29:28;;;;;;;15.50;5.55;;;22.70;99.90;;;;;;5017868;28;20507;-80
2023/06/09 09:32:01;;;;;;;15.10;5.70;;;22.70;99.90;;;;;;5015874;28;20334;-79
2023/06/09 09:34:30;;;;;;;14.82;5.57;;;22.80;99.90;;;;;;5005438;28;20488;-76
2023/06/09 09:36:56;;;;;;;20.17;6.30;;;23.00;99.90;;;;;;5008088;28;20068;-79
2023/06/09 09:39:22;;;;;;;12.38;5.15;;;23.10;99.90;;;;;;5018080;28;20041;-74
2023/06/09 09:42:01;;;;;;;12.90;5.35;;;23.30;99.90;;;;;;5012529;28;20133;-81
2023/06/09 09:44:35;;;;;;;14.38;5.60;;;23.40;99.90;;;;;;5009360;28;20049;-79
2023/06/09 09:47:04;;;;;;;13.95;5.90;;;23.30;99.90;;;;;;5017495;28;20050;-82
2023/06/09 09:49:30;;;;;;;15.95;7.38;;;23.40;99.90;;;;;;5013188;28;20049;-79
2023/06/09 09:51:58;;;;;;;13.77;5.53;;;23.40;99.90;;;;;;5013086;28;20045;-83
2023/06/09 09:54:26;;;;;;;12.50;5.43;;;23.50;99.90;;;;;;5007380;28;20546;-88
2023/06/09 09:56:58;;;;;;;16.08;6.18;;;23.60;99.90;;;;;;5024865;28;20038;-80
2023/06/09 09:59:25;;;;;;;14.93;6.70;;;23.70;99.90;;;;;;5017765;28;20041;-81
2023/06/09 10:01:55;;;;;;;12.88;5.90;;;23.80;99.90;;;;;;5000899;28;20117;-80
2023/06/09 10:04:24;;;;;;;11.55;5.65;;;23.80;99.90;;;;;;5018516;28;20049;-86
2023/06/09 10:06:55;;;;;;;18.20;5.97;;;23.90;99.90;;;;;;5010239;28;20096;-84
2023/06/09 10:09:25;;;;;;;13.50;5.80;;;23.90;99.90;;;;;;5014625;28;20056;-84
2023/06/09 10:11:54;;;;;;;16.75;6.32;;;24.00;99.90;;;;;;5013703;28;20049;-88
2023/06/09 10:14:21;;;;;;;12.98;5.90;;;24.00;99.90;;;;;;5018029;28;20057;-86
2023/06/09 10:16:57;;;;;;;14.73;6.28;;;24.10;99.90;;;;;;5014654;28;20109;-85
2023/06/09 10:19:24;;;;;;;14.80;5.55;;;24.30;99.90;;;;;;5013551;28;20833;-87
2023/06/09 10:21:53;;;;;;;11.45;5.85;;;24.50;99.90;;;;;;5016646;28;20038;-82
2023/06/09 10:24:23;;;;;;;13.82;5.57;;;24.60;99.90;;;;;;4996639;28;20049;-89
2023/06/09 10:26:49;;;;;;;14.27;6.03;;;24.80;99.90;;;;;;5028460;28;20073;-86
2023/06/09 10:29:16;;;;;;;17.13;5.95;;;24.90;99.90;;;;;;5011131;28;20508;-88
2023/06/09 10:31:45;;;;;;;14.35;6.45;;;25.00;99.90;;;;;;5021351;28;20108;-88
2023/06/09 10:34:15;;;;;;;12.98;5.60;;;25.10;99.90;;;;;;5014729;28;20068;-92
2023/06/09 10:36:41;;;;;;;14.65;6.30;;;25.20;99.90;;;;;;5018840;28;20044;-89
2023/06/09 10:39:23;;;;;;;12.82;5.47;;;25.10;99.90;;;;;;5020654;28;20034;-85
2023/06/09 10:42:21;;;;;;;17.37;6.13;;;25.10;99.90;;;;;;5027023;28;20038;-89
2023/06/09 10:45:12;;;;;;;14.40;5.43;;;25.00;99.90;;;;;;5023873;28;20300;-87
2023/06/09 10:47:46;;;;;;;11.80;5.95;;;24.90;99.90;;;;;;5027236;28;20041;-90
2023/06/09 10:50:30;;;;;;;12.52;5.78;;;25.00;99.90;;;;;;5025542;28;20152;-88
2023/06/09 10:52:59;;;;;;;13.88;5.60;;;25.00;99.90;;;;;;5029890;28;20144;-91
2023/06/09 10:55:27;;;;;;;11.15;5.65;;;25.00;99.90;;;;;;5029352;28;20042;-89
2023/06/09 10:57:54;;;;;;;11.93;5.82;;;25.10;99.90;;;;;;5025455;28;20965;-87
2023/06/09 11:00:24;;;;;;;12.18;5.70;;;25.20;99.90;;;;;;5020466;28;20071;-88
2023/06/09 11:03:30;;;;;;;14.50;6.10;;;25.20;99.90;;;;;;5024546;28;20689;-87
2023/06/09 11:06:00;;;;;;;11.52;5.28;;;25.20;99.90;;;;;;5017903;28;20048;-87
2023/06/09 11:08:26;;;;;;;11.55;5.80;;;25.30;99.90;;;;;;5025534;28;20056;-89
2023/06/09 11:10:52;;;;;;;9.52;5.60;;;25.40;99.90;;;;;;5022508;28;20498;-81
2023/06/09 11:13:38;;;;;;;14.35;6.05;;;25.40;99.90;;;;;;5010766;28;20037;-80
2023/06/09 11:16:04;;;;;;;12.82;5.68;;;25.50;99.90;;;;;;5005778;28;20041;-79
2023/06/09 11:18:31;;;;;;;11.43;6.00;;;25.50;99.90;;;;;;5020123;28;20042;-82
2023/06/09 11:21:07;;;;;;;12.50;5.53;;;25.60;99.90;;;;;;5019799;28;20050;-82
2023/06/09 11:24:01;;;;;;;14.45;5.65;;;25.60;99.90;;;;;;5016562;28;20401;-83
2023/06/09 11:26:28;;;;;;;12.95;5.80;;;25.70;99.90;;;;;;5009381;28;20045;-81
2023/06/09 11:28:54;;;;;;;11.52;5.47;;;25.80;99.90;;;;;;5021477;28;20090;-81
2023/06/09 11:31:20;;;;;;;11.90;5.35;;;25.80;99.90;;;;;;5017608;28;20673;-84
2023/06/09 11:33:53;;;;;;;13.55;5.82;;;26.00;99.90;;;;;;5018868;28;20125;-84
2023/06/09 11:36:27;;;;;;;11.40;5.22;;;26.00;99.90;;;;;;5018894;28;20493;-81
2023/06/09 11:38:59;;;;;;;9.85;5.60;;;26.10;99.90;;;;;;5003212;28;20037;-78
2023/06/09 11:41:25;;;;;;;13.35;5.57;;;26.10;99.90;;;;;;5015127;28;20053;-82
2023/06/09 11:43:56;;;;;;;11.63;5.85;;;26.20;99.90;;;;;;5013489;28;20068;-82
2023/06/09 11:46:22;;;;;;;13.20;5.97;;;26.30;99.90;;;;;;5017739;28;20050;-80
2023/06/09 11:49:06;;;;;;;13.57;5.47;;;26.20;99.90;;;;;;5018229;28;20049;-76
2023/06/09 11:51:55;;;;;;;13.57;5.90;;;26.20;99.90;;;;;;5018484;28;20501;-81
2023/06/09 11:54:21;;;;;;;15.95;6.05;;;26.30;99.90;;;;;;5018904;28;25474;-76
2023/06/09 11:56:48;;;;;;;12.90;5.45;;;26.40;99.90;;;;;;5017745;28;20115;-78
2023/06/09 11:59:18;;;;;;;13.07;5.57;;;26.30;99.90;;;;;;5018148;28;20064;-79
2023/06/09 12:01:43;;;;;;;12.90;6.20;;;26.30;99.90;;;;;;5016303;28;20108;-77
2023/06/09 12:04:12;;;;;;;15.60;6.05;;;26.40;99.90;;;;;;5018887;28;20481;-79
2023/06/09 12:06:38;;;;;;;12.70;5.93;;;26.50;99.90;;;;;;5012162;28;20045;-74
2023/06/09 12:09:23;;;;;;;13.23;5.28;;;26.50;99.90;;;;;;5018652;28;20577;-73
2023/06/09 12:11:53;;;;;;;14.77;5.90;;;26.60;99.90;;;;;;5017010;28;20046;-78
2023/06/09 12:14:22;;;;;;;12.05;6.05;;;26.60;99.90;;;;;;4999858;28;20043;-77
2023/06/09 12:16:49;;;;;;;14.13;5.82;;;26.70;99.90;;;;;;5031733;28;20033;-77
2023/06/09 12:19:18;;;;;;;18.83;6.07;;;26.60;99.90;;;;;;5017347;28;20385;-75
2023/06/09 12:21:51;;;;;;;12.65;5.90;;;26.60;99.90;;;;;;5019283;28;20041;-75
2023/06/09 12:24:16;;;;;;;15.90;5.72;;;26.60;99.90;;;;;;4995175;28;20399;-73
2023/06/09 12:26:50;;;;;;;16.90;5.55;;;26.70;99.90;;;;;;4995970;28;20067;-73
2023/06/09 12:29:23;;;;;;;13.75;5.90;;;26.70;99.90;;;;;;5030382;28;20037;-73
2023/06/09 12:31:49;;;;;;;20.65;6.43;;;26.60;99.90;;;;;;5012314;28;20821;-74
2023/06/09 12:34:29;;;;;;;16.58;6.45;;;26.50;99.90;;;;;;5013181;28;20524;-80
2023/06/09 12:36:58;;;;;;;17.13;6.53;;;26.50;99.90;;;;;;5018034;28;20523;-75
2023/06/09 12:39:33;;;;;;;18.05;7.07;;;26.40;99.90;;;;;;5015707;28;20505;-75
2023/06/09 12:42:09;;;;;;;15.90;5.88;;;26.40;99.90;;;;;;5016959;28;20162;-75